Flight Track Log - Related Links

Times and Time Zones

All times are in EST time to prevent confusion due to time zone crossing. See the FFT917 flight status page for this flight to view local times or setup timezone preferences in your user account.

Time Position Orientation Groundspeed Altitude Reporting Facility
EST Latitude Longitude Course Direction KTS MPH feet Rate Location/Type
Sun 08:08:46 AM 40.2590 -74.8330 214° Southwest 136 157 1,700  Level FlightAware ADS-B
Sun 08:09:18 AM 40.2390 -74.8530 217° Southwest 177 204 2,500 1,800 Climbing FlightAware ADS-B
Sun 08:10:06 AM 40.2120 -74.9000 233° Southwest 229 264 4,100 2,471 Climbing FlightAware ADS-B
Sun 08:10:43 AM 40.1930 -74.9450 241° Southwest 244 281 6,000 2,625 Climbing FlightAware ADS-B
Sun 08:11:10 AM 40.1800 -74.9770 242° Southwest 248 285 6,900 674 Climbing FlightAware ADS-B
Sun 08:12:12 AM 40.1460 -75.0600 242° Southwest 249 287 7,000 124 Climbing FlightAware ADS-B
Sun 08:12:47 AM 40.1260 -75.1070 241° Southwest 249 287 7,100 1,826 Climbing FlightAware ADS-B
Sun 08:13:21 AM 40.1060 -75.1540 241° Southwest 247 284 9,100 2,636 Climbing FlightAware ADS-B
Sun 08:13:53 AM 40.0900 -75.1960 244° Southwest 252 290 10,000 761 Climbing FlightAware ADS-B
Sun 08:14:32 AM 40.0660 -75.2520 241° Southwest 282 325 10,000  Level FlightAware ADS-B
Sun 08:15:07 AM 40.0440 -75.3050 242° Southwest 285 328 10,000  Level FlightAware ADS-B
Sun 08:15:44 AM 40.0220 -75.3600 242° Southwest 286 329 10,000  Level FlightAware ADS-B
Sun 08:16:20 AM 39.9980 -75.4170 241° Southwest 286 329 10,000  Level FlightAware ADS-B
Sun 08:16:59 AM 39.9740 -75.4740 241° Southwest 286 329 10,000 69 Level FlightAware ADS-B
Sun 08:17:47 AM 39.9440 -75.5460 241° Southwest 283 326 10,100 1,200 Climbing FlightAware ADS-B
Sun 08:18:24 AM 39.9200 -75.6030 241° Southwest 279 321 11,700 2,842 Climbing FlightAware ADS-B
Sun 08:19:03 AM 39.8960 -75.6620 242° Southwest 286 329 13,700 3,101 Climbing FlightAware ADS-B
Sun 08:19:53 AM 39.8640 -75.7380 241° Southwest 284 327 16,300 2,690 Climbing FlightAware ADS-B
Sun 08:20:30 AM 39.8400 -75.7930 240° Southwest 300 345 17,600 2,463 Climbing FlightAware ADS-B
Sun 08:21:28 AM 39.7880 -75.8780 231° Southwest 306 352 20,200 2,514 Climbing FlightAware ADS-B
Sun 08:22:15 AM 39.7460 -75.9460 231° Southwest 314 361 22,000 1,931 Climbing FlightAware ADS-B
Sun 08:22:55 AM 39.7100 -76.0030 231° Southwest 321 369 23,000 1,215 Climbing FlightAware ADS-B
Sun 08:23:34 AM 39.6740 -76.0610 231° Southwest 326 375 23,600 1,540 Climbing FlightAware ADS-B
Sun 08:24:48 AM 39.6000 -76.1760 230° Southwest 338 389 25,900 1,745 Climbing FlightAware ADS-B
Sun 08:25:24 AM 39.5630 -76.2340 230° Southwest 347 399 26,800 1,585 Climbing FlightAware ADS-B
Sun 08:26:34 AM 39.4930 -76.3420 230° Southwest 351 404 28,700 1,560 Climbing FlightAware ADS-B
Sun 08:27:04 AM 39.4590 -76.3930 229° Southwest 356 410 29,400 1,333 Climbing FlightAware ADS-B
Sun 08:28:13 AM 39.3890 -76.5030 231° Southwest 365 420 30,900 1,226 Climbing FlightAware ADS-B
Sun 08:28:37 AM 39.3620 -76.5470 232° Southwest 369 425 31,300 1,662 Climbing FlightAware ADS-B
Sun 08:29:18 AM 39.3170 -76.6170 230° Southwest 360 414 32,700 1,852 Climbing FlightAware ADS-B
Sun 08:29:58 AM 39.2760 -76.6810 230° Southwest 355 409 33,800 929 Climbing FlightAware ADS-B
Sun 08:30:42 AM 39.2290 -76.7540 230° Southwest 353 406 34,000 156 Climbing FlightAware ADS-B
Sun 08:31:15 AM 39.1930 -76.8110 231° Southwest 355 409 34,000  Level FlightAware ADS-B
Sun 08:31:48 AM 39.1610 -76.8610 230° Southwest 356 410 34,000  Level FlightAware ADS-B
Sun 08:32:18 AM 39.1270 -76.9140 230° Southwest 359 413 34,000  Level FlightAware ADS-B
Sun 08:32:59 AM 39.0850 -76.9790 230° Southwest 362 417 34,000  Level FlightAware ADS-B
Sun 08:33:35 AM 39.0420 -77.0400 228° Southwest 367 422 34,000 87 Level FlightAware ADS-B
Sun 08:34:08 AM 39.0010 -77.0860 221° Southwest 370 426 34,100  Climbing FlightAware ADS-B
Sun 08:34:43 AM 38.9570 -77.1340 220° Southwest 369 425 34,000 -83 Descending FlightAware ADS-B
Sun 08:35:20 AM 38.9090 -77.1870 221° Southwest 356 410 34,000  Level FlightAware ADS-B
Sun 08:35:59 AM 38.8600 -77.2400 220° Southwest 352 405 34,000  Level FlightAware ADS-B
Sun 08:36:35 AM 38.8150 -77.2900 221° Southwest 354 407 34,000  Level FlightAware ADS-B
Sun 08:37:08 AM 38.7730 -77.3360 220° Southwest 355 409 34,000  Level FlightAware ADS-B
Sun 08:37:37 AM 38.7400 -77.3720 220° Southwest 357 411 34,000 85 Level FlightAware ADS-B
Sun 08:38:19 AM 38.6830 -77.4340 220° Southwest 361 415 34,100 70 Climbing FlightAware ADS-B
Sun 08:39:03 AM 38.6270 -77.4950 220° Southwest 363 418 34,100  Level FlightAware ADS-B
Sun 08:39:35 AM 38.5860 -77.5390 220° Southwest 363 418 34,100 -78 Level FlightAware ADS-B
Sun 08:40:20 AM 38.5280 -77.6020 220° Southwest 363 418 34,000 -58 Descending FlightAware ADS-B
Sun 08:41:19 AM 38.4540 -77.6820 220° Southwest 363 418 34,000  Level FlightAware ADS-B
Sun 08:41:52 AM 38.4120 -77.7270 220° Southwest 364 419 34,000  Level FlightAware ADS-B
Sun 08:42:37 AM 38.3530 -77.7910 220° Southwest 365 420 34,000  Level FlightAware ADS-B
Sun 08:43:10 AM 38.3110 -77.8360 220° Southwest 366 421 34,000  Level FlightAware ADS-B
Sun 08:43:49 AM 38.2600 -77.8900 220° Southwest 367 422 34,000  Level FlightAware ADS-B
Sun 08:44:23 AM 38.2150 -77.9390 221° Southwest 373 429 34,000  Level FlightAware ADS-B
Sun 08:45:04 AM 38.1600 -77.9970 220° Southwest 382 440 34,000 385 Level FlightAware ADS-B
Sun 08:45:41 AM 38.1050 -78.0440 214° Southwest 399 459 34,500 779 Climbing FlightAware ADS-B
Sun 08:46:21 AM 38.0390 -78.0830 205° Southwest 401 461 35,000 345 Climbing FlightAware ADS-B
Sun 08:47:08 AM 37.9600 -78.1300 205° Southwest 394 453 35,000  Level FlightAware ADS-B
Sun 08:47:47 AM 37.8950 -78.1690 205° Southwest 396 456 35,000  Level FlightAware ADS-B
Sun 08:48:21 AM 37.8390 -78.2030 206° Southwest 395 455 35,000  Level FlightAware ADS-B
Sun 08:49:10 AM 37.7600 -78.2520 206° Southwest 394 453 35,000 60 Level FlightAware ADS-B
Sun 08:50:01 AM 37.6740 -78.3050 206° Southwest 409 471 35,100 614 Climbing FlightAware ADS-B
Sun 08:50:38 AM 37.6120 -78.3450 207° Southwest 407 468 35,900 1,333 Climbing FlightAware ADS-B
Sun 08:51:22 AM 37.5370 -78.3900 205° Southwest 404 465 36,900 1,268 Climbing FlightAware ADS-B
Sun 08:51:49 AM 37.4900 -78.4170 205° Southwest 398 458 37,400 828 Climbing FlightAware ADS-B
Sun 08:52:20 AM 37.4460 -78.4540 214° Southwest 382 440 37,700 468 Climbing FlightAware ADS-B
Sun 08:53:06 AM 37.3850 -78.5220 222° Southwest 374 430 38,000 207 Climbing FlightAware ADS-B
Sun 08:53:47 AM 37.3330 -78.5790 221° Southwest 375 432 38,000  Level FlightAware ADS-B
Sun 08:54:22 AM 37.2870 -78.6310 222° Southwest 374 430 38,000  Level FlightAware ADS-B
Sun 08:54:56 AM 37.2420 -78.6800 221° Southwest 373 429 38,000  Level FlightAware ADS-B
Sun 08:55:37 AM 37.1900 -78.7380 222° Southwest 373 429 38,000  Level FlightAware ADS-B
Sun 08:56:08 AM 37.1500 -78.7820 221° Southwest 374 430 38,000  Level FlightAware ADS-B
Sun 08:56:49 AM 37.0960 -78.8410 221° Southwest 376 433 38,000  Level FlightAware ADS-B
Sun 08:57:24 AM 37.0510 -78.8910 222° Southwest 377 434 38,000  Level FlightAware ADS-B
Sun 08:58:05 AM 36.9980 -78.9490 221° Southwest 378 435 38,000 80 Level FlightAware ADS-B
Sun 08:58:39 AM 36.9520 -78.9990 221° Southwest 378 435 38,100 79 Climbing FlightAware ADS-B
Sun 08:59:21 AM 36.9000 -79.0560 221° Southwest 378 435 38,100 -78 Level FlightAware ADS-B
Sun 08:59:56 AM 36.8530 -79.1080 222° Southwest 377 434 38,000 -92 Descending FlightAware ADS-B
Sun 09:00:26 AM 36.8140 -79.1500 221° Southwest 379 436 38,000  Level FlightAware ADS-B
Sun 09:01:11 AM 36.7510 -79.2190 221° Southwest 379 436 38,000  Level FlightAware ADS-B
Sun 09:01:42 AM 36.7110 -79.2620 221° Southwest 378 435 38,000  Level FlightAware ADS-B
Sun 09:02:23 AM 36.6570 -79.3210 221° Southwest 377 434 38,000  Level FlightAware ADS-B
Sun 09:02:55 AM 36.6150 -79.3660 221° Southwest 377 434 38,000  Level FlightAware ADS-B
Sun 09:04:02 AM 36.5280 -79.4600 221° Southwest 379 436 38,000  Level FlightAware ADS-B
Sun 09:04:39 AM 36.4780 -79.5140 221° Southwest 379 436 38,000  Level FlightAware ADS-B
Sun 09:05:16 AM 36.4280 -79.5680 221° Southwest 379 436 38,000  Level FlightAware ADS-B
Sun 09:05:50 AM 36.3850 -79.6140 221° Southwest 380 437 38,000  Level FlightAware ADS-B
Sun 09:06:22 AM 36.3410 -79.6610 221° Southwest 379 436 38,000  Level FlightAware ADS-B
Sun 09:07:00 AM 36.2900 -79.7160 221° Southwest 379 436 38,000 71 Level FlightAware ADS-B
Sun 09:07:46 AM 36.2290 -79.7810 221° Southwest 378 435 38,100  Climbing FlightAware ADS-B
Sun 09:08:14 AM 36.1920 -79.8210 221° Southwest 378 435 38,000 -90 Descending FlightAware ADS-B
Sun 09:08:53 AM 36.1410 -79.8750 221° Southwest 377 434 38,000  Level FlightAware ADS-B
Sun 09:09:29 AM 36.0910 -79.9270 220° Southwest 377 434 38,000  Level FlightAware ADS-B
Sun 09:10:09 AM 36.0340 -79.9760 215° Southwest 389 448 38,000  Level FlightAware ADS-B
Sun 09:10:44 AM 35.9770 -80.0110 206° Southwest 399 459 38,000 115 Level FlightAware ADS-B
Sun 09:11:01 AM 35.9480 -80.0250 201° Southwest 398 458 38,100 80 Climbing FlightAware ADS-B
Sun 09:11:59 AM 35.8490 -80.0760 203° Southwest 392 451 38,100 -61 Level FlightAware ADS-B
Sun 09:12:39 AM 35.7840 -80.1080 202° Southwest 390 449 38,000 -80 Descending FlightAware ADS-B
Sun 09:13:14 AM 35.7240 -80.1380 202° Southwest 388 447 38,000  Level FlightAware ADS-B
Sun 09:13:54 AM 35.6590 -80.1710 202° Southwest 389 448 38,000  Level FlightAware ADS-B
Sun 09:14:47 AM 35.5690 -80.2160 202° Southwest 392 451 38,000  Level FlightAware ADS-B
Sun 09:15:43 AM 35.4740 -80.2630 202° Southwest 393 452 38,000  Level FlightAware ADS-B
Sun 09:16:06 AM 35.4360 -80.2830 203° Southwest 393 452 38,000  Level FlightAware ADS-B
Sun 09:16:46 AM 35.3700 -80.3150 202° Southwest 394 453 38,000  Level FlightAware ADS-B
Sun 09:17:23 AM 35.3040 -80.3480 202° Southwest 397 457 38,000 81 Level FlightAware ADS-B
Sun 09:18:00 AM 35.2410 -80.3800 203° Southwest 399 459 38,100 85 Climbing FlightAware ADS-B
Sun 09:18:34 AM 35.1840 -80.4080 202° Southwest 399 459 38,100  Level FlightAware ADS-B
Sun 09:19:09 AM 35.1250 -80.4370 202° Southwest 398 458 38,100  Level FlightAware ADS-B
Sun 09:19:53 AM 35.0480 -80.4750 202° Southwest 395 455 38,100 -62 Level FlightAware ADS-B
Sun 09:20:46 AM 34.9610 -80.5180 202° Southwest 392 451 38,000 -65 Descending FlightAware ADS-B
Sun 09:21:26 AM 34.8920 -80.5520 202° Southwest 392 451 38,000  Level FlightAware ADS-B
Sun 09:22:02 AM 34.8320 -80.5810 202° Southwest 392 451 38,000  Level FlightAware ADS-B
Sun 09:22:48 AM 34.7540 -80.6200 202° Southwest 393 452 38,000  Level FlightAware ADS-B
Sun 09:23:35 AM 34.6740 -80.6590 202° Southwest 393 452 38,000  Level FlightAware ADS-B
Sun 09:24:12 AM 34.6120 -80.6890 202° Southwest 393 452 38,000  Level FlightAware ADS-B
Sun 09:24:49 AM 34.5500 -80.7190 202° Southwest 394 453 38,000  Level FlightAware ADS-B
Sun 09:25:33 AM 34.4760 -80.7560 202° Southwest 395 455 38,000  Level FlightAware ADS-B
Sun 09:26:21 AM 34.3950 -80.7950 202° Southwest 396 456 38,000  Level FlightAware ADS-B
Sun 09:26:58 AM 34.3310 -80.8250 201° Southwest 397 457 38,000  Level FlightAware ADS-B
Sun 09:27:41 AM 34.2570 -80.8610 202° Southwest 402 463 38,000  Level FlightAware ADS-B
Sun 09:28:10 AM 34.2040 -80.8750 192° South 422 486 38,000  Level FlightAware ADS-B
Sun 09:28:43 AM 34.1380 -80.8790 183° South 429 494 38,000  Level FlightAware ADS-B
Sun 09:29:26 AM 34.0560 -80.8830 182° South 427 491 38,000  Level FlightAware ADS-B
Sun 09:30:05 AM 33.9750 -80.8880 183° South 426 490 38,000  Level FlightAware ADS-B
Sun 09:30:50 AM 33.8860 -80.8920 182° South 425 489 38,000  Level FlightAware ADS-B
Sun 09:31:25 AM 33.8190 -80.8950 182° South 425 489 38,000  Level FlightAware ADS-B
Sun 09:31:57 AM 33.7560 -80.8990 183° South 425 489 38,000  Level FlightAware ADS-B
Sun 09:32:31 AM 33.6870 -80.9020 182° South 438 504 38,000  Level FlightAware ADS-B
Sun 09:33:07 AM 33.6210 -80.9060 183° South 447 514 38,000  Level FlightAware ADS-B
Sun 09:33:41 AM 33.5420 -80.9090 182° South 450 518 38,000  Level FlightAware ADS-B
Sun 09:34:25 AM 33.4540 -80.9140 183° South 450 518 38,000  Level FlightAware ADS-B
Sun 09:35:05 AM 33.3710 -80.9180 182° South 449 517 38,000  Level FlightAware ADS-B
Sun 09:35:51 AM 33.2820 -80.9220 182° South 448 516 38,000  Level FlightAware ADS-B
Sun 09:36:36 AM 33.1790 -80.9280 183° South 449 517 38,000  Level FlightAware ADS-B
Sun 09:37:11 AM 33.1080 -80.9310 182° South 451 519 38,000  Level FlightAware ADS-B
Sun 09:37:41 AM 33.0440 -80.9340 182° South 452 520 38,000  Level FlightAware ADS-B
Sun 09:38:21 AM 32.9610 -80.9380 182° South 452 520 38,000 86 Level FlightAware ADS-B
Sun 09:38:51 AM 32.8980 -80.9420 183° South 453 521 38,100 92 Climbing FlightAware ADS-B
Sun 09:39:26 AM 32.8270 -80.9450 182° South 453 521 38,100 -92 Level FlightAware ADS-B
Sun 09:39:56 AM 32.7640 -80.9480 182° South 453 521 38,000 -86 Descending FlightAware ADS-B
Sun 09:40:36 AM 32.6790 -80.9520 182° South 453 521 38,000  Level FlightAware ADS-B
Sun 09:41:11 AM 32.6050 -80.9560 183° South 452 520 38,000  Level FlightAware ADS-B
Sun 09:41:46 AM 32.5380 -80.9590 182° South 451 519 38,000  Level FlightAware ADS-B
Sun 09:42:23 AM 32.4620 -80.9630 183° South 451 519 38,000  Level FlightAware ADS-B
Sun 09:43:07 AM 32.3650 -80.9680 182° South 448 516 38,000  Level FlightAware ADS-B
Sun 09:43:54 AM 32.2650 -80.9720 182° South 447 514 38,000  Level FlightAware ADS-B
Sun 09:44:16 AM 32.2180 -80.9750 183° South 447 514 38,000  Level FlightAware ADS-B
Sun 09:45:05 AM 32.1200 -80.9790 182° South 448 516 38,000  Level FlightAware ADS-B
Sun 09:45:43 AM 32.0500 -80.9830 183° South 450 518 38,000  Level FlightAware ADS-B
Sun 09:46:28 AM 31.9610 -80.9870 182° South 451 519 38,000  Level FlightAware ADS-B
Sun 09:47:16 AM 31.8460 -80.9930 183° South 452 520 38,000  Level FlightAware ADS-B
Sun 09:48:04 AM 31.7460 -80.9980 182° South 454 522 38,000  Level FlightAware ADS-B
Sun 09:48:45 AM 31.6610 -81.0020 182° South 454 522 38,000 75 Level FlightAware ADS-B
Sun 09:49:24 AM 31.5770 -81.0060 182° South 453 521 38,100 -76 Climbing FlightAware ADS-B
Sun 09:50:04 AM 31.4930 -81.0100 182° South 451 519 37,900 -494 Descending FlightAware ADS-B
Sun 09:50:49 AM 31.4250 -81.0130 182° South 445 512 37,400 -835 Descending FlightAware ADS-B
Sun 09:51:23 AM 31.3560 -81.0170 183° South 448 516 36,800 -1,079 Descending FlightAware ADS-B
Sun 09:52:18 AM 31.2310 -81.0220 182° South 450 518 35,800 -1,129 Descending FlightAware ADS-B
Sun 09:52:48 AM 31.1510 -81.0260 182° South 452 520 35,200 -904 Descending FlightAware ADS-B
Sun 09:53:31 AM 31.0860 -81.0290 182° South 452 520 34,700 -963 Descending FlightAware ADS-B
Sun 09:54:09 AM 30.9850 -81.0340 182° South 455 524 33,900 -1,129 Descending FlightAware ADS-B
Sun 09:54:56 AM 30.8850 -81.0390 182° South 454 522 33,100 -955 Descending FlightAware ADS-B
Sun 09:55:37 AM 30.7980 -81.0430 182° South 454 522 32,500 -600 Descending FlightAware ADS-B
Sun 09:56:46 AM 30.6500 -81.0500 182° South 462 532 32,000 -273 Descending FlightAware ADS-B
Sun 09:57:27 AM 30.5630 -81.0540 182° South 463 533 32,000  Level FlightAware ADS-B
Sun 09:58:08 AM 30.4740 -81.0580 182° South 463 533 32,000  Level FlightAware ADS-B
Sun 09:58:56 AM 30.3730 -81.0590 180° South 463 533 32,000  Level FlightAware ADS-B
Sun 09:59:34 AM 30.2900 -81.0610 181° South 462 532 32,000  Level FlightAware ADS-B
Sun 10:00:08 AM 30.2210 -81.0630 181° South 462 532 32,000 -561 Level FlightAware ADS-B
Sun 10:01:21 AM 30.0640 -81.0660 181° South 458 527 31,000 -927 Descending FlightAware ADS-B
Sun 10:01:58 AM 29.9840 -81.0680 181° South 459 528 30,300 -1,151 Descending FlightAware ADS-B
Sun 10:02:34 AM 29.9070 -81.0700 181° South 458 527 29,600 -1,448 Descending FlightAware ADS-B
Sun 10:03:25 AM 29.8090 -81.0720 181° South 442 509 28,200 -2,217 Descending FlightAware ADS-B
Sun 10:04:06 AM 29.7230 -81.0740 181° South 432 497 26,200 -1,553 Descending FlightAware ADS-B
Sun 10:04:50 AM 29.6450 -81.0750 181° South 431 496 26,000 -150 Descending FlightAware ADS-B
Sun 10:05:26 AM 29.5840 -81.0770 182° South 431 496 26,000  Level FlightAware ADS-B
Sun 10:06:02 AM 29.5230 -81.0780 181° South 431 496 26,000  Level FlightAware ADS-B
Sun 10:06:38 AM 29.4620 -81.0790 181° South 431 496 26,000  Level FlightAware ADS-B
Sun 10:07:26 AM 29.3810 -81.0810 181° South 431 496 26,000  Level FlightAware ADS-B
Sun 10:08:02 AM 29.3200 -81.0820 181° South 431 496 26,000 -2,667 Level FlightAware ADS-B
Sun 10:13:17 AM 28.8060 -81.1370 185° South 345 397 10,400 -2,806 Descending FlightAware ADS-B
Sun 10:13:42 AM 28.7480 -81.1480 189° South 345 397 10,100 -480 Descending FlightAware ADS-B
Sun 10:14:32 AM 28.6660 -81.1630 189° South 342 394 9,800 -286 Descending FlightAware ADS-B
Sun 10:15:27 AM 28.5900 -81.1780 190° South 294 338 9,600 -706 Descending FlightAware ADS-B
Sun 10:15:57 AM 28.5550 -81.1840 189° South 293 337 8,800 -1,600 Descending FlightAware ADS-B
Sun 10:16:27 AM 28.5090 -81.1870 183° South 290 334 8,000 -1,747 Descending FlightAware ADS-B
Sun 10:17:16 AM 28.4430 -81.1870 180° South 288 331 6,500 -1,662 Descending FlightAware ADS-B
Sun 10:17:32 AM 28.4260 -81.1870 180° South 291 335 6,200 -1,448 Descending FlightAware ADS-B
Sun 10:18:14 AM 28.3660 -81.1870 180° South 282 325 5,100 -1,121 Descending FlightAware ADS-B
Sun 10:19:03 AM 28.3070 -81.1870 180° South 253 291 4,500 -742 Descending FlightAware ADS-B
Sun 10:19:51 AM 28.2650 -81.2050 201° Southwest 225 259 3,900 -706 Descending FlightAware ADS-B
Sun 10:20:28 AM 28.2600 -81.2490 263° West 219 252 3,500 -1,286 Descending FlightAware ADS-B
Sun 10:21:15 AM 28.2790 -81.2640 325° Northwest 192 221 2,100 -1,462 Descending FlightAware ADS-B
Sun 10:21:46 AM 28.3210 -81.2920 330° Northwest 186 214 1,600 -986 Descending FlightAware ADS-B
Sun 10:22:28 AM 28.3560 -81.2950 356° North 157 181 900 -627 Descending FlightAware ADS-B
Sun 10:22:53 AM 28.3710 -81.2910 13° North 157 181 900 -421 Level FlightAware ADS-B
Sun 10:23:25 AM 28.4000 -81.3000 13° North 129 148 500 -750 Descending Orlando TRACON
Sun 10:25:00 AM 28.4167 -81.3000 336° Northwest  Level FlightAware Approximate
Sun 10:32:00 AM 28.4294 -81.3090 336° Northwest  Level Estimated
Sun 10:33:00 AM 28.4294 -81.3090 336° Northwest  Level Estimated
Sun 10:34:00 AM 28.4294 -81.3090 336° Northwest  Level Estimated

Login

Don't have an account? Register now (free) for customized features, flight alerts, and more!